sensor_id;sensor_type;location;lat;lon;timestamp;pressure;altitude;pressure_sealevel;temperature;humidity
52975;BME280;38839;45.186;5.720;2023-04-26T00:01:59;99064.06;;;11.19;54.13
52975;BME280;38839;45.186;5.720;2023-04-26T00:04:25;99064.06;;;11.20;54.19
52975;BME280;38839;45.186;5.720;2023-04-26T00:06:53;99064.91;;;11.22;54.22
52975;BME280;38839;45.186;5.720;2023-04-26T00:09:18;99064.88;;;11.25;54.18
52975;BME280;38839;45.186;5.720;2023-04-26T00:11:44;99072.72;;;11.27;54.38
52975;BME280;38839;45.186;5.720;2023-04-26T00:14:09;99070.09;;;11.25;54.04
52975;BME280;38839;45.186;5.720;2023-04-26T00:16:35;99068.38;;;11.24;54.00
52975;BME280;38839;45.186;5.720;2023-04-26T00:19:01;99069.28;;;11.22;53.96
52975;BME280;38839;45.186;5.720;2023-04-26T00:21:26;99073.59;;;11.21;54.03
52975;BME280;38839;45.186;5.720;2023-04-26T00:23:52;99075.41;;;11.13;54.04
52975;BME280;38839;45.186;5.720;2023-04-26T00:26:18;99076.38;;;11.01;54.35
52975;BME280;38839;45.186;5.720;2023-04-26T00:28:43;99081.59;;;10.98;54.39
52975;BME280;38839;45.186;5.720;2023-04-26T00:31:16;99085.13;;;10.91;54.94
52975;BME280;38839;45.186;5.720;2023-04-26T00:33:42;99085.16;;;10.83;54.89
52975;BME280;38839;45.186;5.720;2023-04-26T00:36:08;99086.94;;;10.75;55.04
52975;BME280;38839;45.186;5.720;2023-04-26T00:38:33;99079.16;;;10.69;55.36
52975;BME280;38839;45.186;5.720;2023-04-26T00:40:58;99077.41;;;10.68;55.77
52975;BME280;38839;45.186;5.720;2023-04-26T00:43:24;99086.16;;;10.58;56.02
52975;BME280;38839;45.186;5.720;2023-04-26T00:45:50;99091.34;;;10.58;56.02
52975;BME280;38839;45.186;5.720;2023-04-26T00:48:16;99094.91;;;10.41;56.36
52975;BME280;38839;45.186;5.720;2023-04-26T00:50:42;99090.53;;;10.43;56.52
52975;BME280;38839;45.186;5.720;2023-04-26T00:53:08;99104.44;;;10.45;56.47
52975;BME280;38839;45.186;5.720;2023-04-26T00:55:34;99107.09;;;10.33;56.47
52975;BME280;38839;45.186;5.720;2023-04-26T00:57:59;99102.72;;;10.29;56.70
52975;BME280;38839;45.186;5.720;2023-04-26T01:00:25;99118.41;;;10.34;56.50
52975;BME280;38839;45.186;5.720;2023-04-26T01:02:50;99115.78;;;10.35;56.41
52975;BME280;38839;45.186;5.720;2023-04-26T01:05:16;99113.19;;;10.32;56.55
52975;BME280;38839;45.186;5.720;2023-04-26T01:07:42;99116.69;;;10.30;56.91
52975;BME280;38839;45.186;5.720;2023-04-26T01:10:08;99113.19;;;10.23;57.12
52975;BME280;38839;45.186;5.720;2023-04-26T01:12:34;99120.16;;;10.16;57.39
52975;BME280;38839;45.186;5.720;2023-04-26T01:15:00;99120.13;;;10.21;57.08
52975;BME280;38839;45.186;5.720;2023-04-26T01:17:25;99121.00;;;10.23;56.97
52975;BME280;38839;45.186;5.720;2023-04-26T01:19:51;99121.91;;;10.17;57.14
52975;BME280;38839;45.186;5.720;2023-04-26T01:22:17;99121.88;;;10.22;56.83
52975;BME280;38839;45.186;5.720;2023-04-26T01:24:44;99123.63;;;10.20;57.13
52975;BME280;38839;45.186;5.720;2023-04-26T01:27:11;99125.38;;;10.18;57.35
52975;BME280;38839;45.186;5.720;2023-04-26T01:29:37;99126.22;;;10.18;57.25
52975;BME280;38839;45.186;5.720;2023-04-26T01:32:02;99131.44;;;10.17;57.48
52975;BME280;38839;45.186;5.720;2023-04-26T01:34:28;99131.44;;;10.20;57.61
52975;BME280;38839;45.186;5.720;2023-04-26T01:36:53;99135.81;;;10.19;57.46
52975;BME280;38839;45.186;5.720;2023-04-26T01:39:19;99134.91;;;10.22;57.51
52975;BME280;38839;45.186;5.720;2023-04-26T01:41:44;99126.22;;;10.17;57.75
52975;BME280;38839;45.186;5.720;2023-04-26T01:44:10;99117.56;;;10.08;58.07
52975;BME280;38839;45.186;5.720;2023-04-26T01:46:35;99121.91;;;10.10;57.95
52975;BME280;38839;45.186;5.720;2023-04-26T01:49:01;99121.03;;;10.07;58.16
52975;BME280;38839;45.186;5.720;2023-04-26T01:51:26;99118.44;;;10.03;58.84
52975;BME280;38839;45.186;5.720;2023-04-26T01:53:52;99108.88;;;10.03;59.26
52975;BME280;38839;45.186;5.720;2023-04-26T01:56:18;99114.09;;;9.82;60.80
52975;BME280;38839;45.186;5.720;2023-04-26T01:58:44;99120.19;;;9.73;60.93
52975;BME280;38839;45.186;5.720;2023-04-26T02:01:09;99121.94;;;9.76;61.21
52975;BME280;38839;45.186;5.720;2023-04-26T02:03:35;99121.94;;;9.80;61.48
52975;BME280;38839;45.186;5.720;2023-04-26T02:06:01;99128.88;;;9.80;61.28
52975;BME280;38839;45.186;5.720;2023-04-26T02:08:26;99118.47;;;9.75;60.86
52975;BME280;38839;45.186;5.720;2023-04-26T02:10:52;99118.47;;;9.72;60.58
52975;BME280;38839;45.186;5.720;2023-04-26T02:13:17;99113.25;;;9.67;60.29
52975;BME280;38839;45.186;5.720;2023-04-26T02:15:47;99121.94;;;9.70;60.27
52975;BME280;38839;45.186;5.720;2023-04-26T02:18:14;99122.81;;;9.69;60.17
52975;BME280;38839;45.186;5.720;2023-04-26T02:20:43;99111.53;;;9.66;60.51
52975;BME280;38839;45.186;5.720;2023-04-26T02:23:10;99108.91;;;9.60;60.47
52975;BME280;38839;45.186;5.720;2023-04-26T02:25:36;99116.75;;;9.56;60.28
52975;BME280;38839;45.186;5.720;2023-04-26T02:28:03;99112.41;;;9.50;60.36
52975;BME280;38839;45.186;5.720;2023-04-26T02:30:29;99108.06;;;9.52;60.35
52975;BME280;38839;45.186;5.720;2023-04-26T02:32:54;99111.53;;;9.54;60.39
52975;BME280;38839;45.186;5.720;2023-04-26T02:35:20;99114.97;;;9.47;60.63
52975;BME280;38839;45.186;5.720;2023-04-26T02:37:46;99109.78;;;9.47;60.49
52975;BME280;38839;45.186;5.720;2023-04-26T02:40:17;99106.31;;;9.43;60.96
52975;BME280;38839;45.186;5.720;2023-04-26T02:42:43;99113.25;;;9.41;60.86
52975;BME280;38839;45.186;5.720;2023-04-26T02:45:08;99118.44;;;9.37;61.02
52975;BME280;38839;45.186;5.720;2023-04-26T02:47:34;99109.78;;;9.33;61.02
52975;BME280;38839;45.186;5.720;2023-04-26T02:50:06;99099.34;;;9.25;61.58
52975;BME280;38839;45.186;5.720;2023-04-26T02:52:32;99103.69;;;9.23;61.56
52975;BME280;38839;45.186;5.720;2023-04-26T02:54:58;99098.47;;;9.19;62.00
52975;BME280;38839;45.186;5.720;2023-04-26T02:57:23;99104.56;;;9.21;62.14
52975;BME280;38839;45.186;5.720;2023-04-26T02:59:49;99098.44;;;9.08;62.70
52975;BME280;38839;45.186;5.720;2023-04-26T03:02:15;99096.72;;;9.09;62.77
52975;BME280;38839;45.186;5.720;2023-04-26T03:04:40;99088.03;;;9.05;62.81
52975;BME280;38839;45.186;5.720;2023-04-26T03:07:06;99095.84;;;8.99;63.51
52975;BME280;38839;45.186;5.720;2023-04-26T03:09:31;99092.34;;;9.00;63.50
52975;BME280;38839;45.186;5.720;2023-04-26T03:11:58;99094.09;;;8.96;63.47
52975;BME280;38839;45.186;5.720;2023-04-26T03:14:23;99107.09;;;8.95;63.95
52975;BME280;38839;45.186;5.720;2023-04-26T03:16:49;99101.03;;;8.97;63.81
52975;BME280;38839;45.186;5.720;2023-04-26T03:19:14;99095.81;;;8.96;63.86
52975;BME280;38839;45.186;5.720;2023-04-26T03:21:40;99086.25;;;8.84;63.85
52975;BME280;38839;45.186;5.720;2023-04-26T03:24:05;99092.31;;;8.81;64.37
52975;BME280;38839;45.186;5.720;2023-04-26T03:26:31;99093.16;;;8.79;64.08
52975;BME280;38839;45.186;5.720;2023-04-26T03:28:57;99096.63;;;8.76;63.83
52975;BME280;38839;45.186;5.720;2023-04-26T03:31:22;99101.81;;;8.70;63.82
52975;BME280;38839;45.186;5.720;2023-04-26T03:33:48;99096.63;;;8.70;63.99
52975;BME280;38839;45.186;5.720;2023-04-26T03:36:14;99100.91;;;8.65;64.16
52975;BME280;38839;45.186;5.720;2023-04-26T03:38:39;99100.94;;;8.66;63.86
52975;BME280;38839;45.186;5.720;2023-04-26T03:41:04;99097.50;;;8.72;63.88
52975;BME280;38839;45.186;5.720;2023-04-26T03:43:30;99100.97;;;8.74;63.71
52975;BME280;38839;45.186;5.720;2023-04-26T03:45:56;99094.00;;;8.65;64.05
52975;BME280;38839;45.186;5.720;2023-04-26T03:48:21;99103.56;;;8.70;64.12
52975;BME280;38839;45.186;5.720;2023-04-26T03:50:47;99099.22;;;8.65;64.38
52975;BME280;38839;45.186;5.720;2023-04-26T03:53:12;99092.25;;;8.69;64.33
52975;BME280;38839;45.186;5.720;2023-04-26T03:55:37;99090.53;;;8.63;64.60
52975;BME280;38839;45.186;5.720;2023-04-26T03:58:03;99100.03;;;8.63;64.66
52975;BME280;38839;45.186;5.720;2023-04-26T04:00:41;99100.94;;;8.63;64.33
52975;BME280;38839;45.186;5.720;2023-04-26T04:03:08;99102.66;;;8.60;64.71
52975;BME280;38839;45.186;5.720;2023-04-26T04:05:33;99093.09;;;8.57;64.52
52975;BME280;38839;45.186;5.720;2023-04-26T04:07:59;99100.03;;;8.57;64.47
52975;BME280;38839;45.186;5.720;2023-04-26T04:10:24;99100.03;;;8.60;64.63
52975;BME280;38839;45.186;5.720;2023-04-26T04:12:50;99098.28;;;8.59;64.40
52975;BME280;38839;45.186;5.720;2023-04-26T04:15:17;99105.19;;;8.51;64.92
52975;BME280;38839;45.186;5.720;2023-04-26T04:17:43;99113.88;;;8.50;64.77
52975;BME280;38839;45.186;5.720;2023-04-26T04:20:09;99109.53;;;8.47;64.94
52975;BME280;38839;45.186;5.720;2023-04-26T04:22:35;99105.22;;;8.49;65.07
52975;BME280;38839;45.186;5.720;2023-04-26T04:25:00;99108.56;;;8.37;65.29
52975;BME280;38839;45.186;5.720;2023-04-26T04:27:26;99122.50;;;8.41;65.24
52975;BME280;38839;45.186;5.720;2023-04-26T04:29:52;99121.63;;;8.42;65.27
52975;BME280;38839;45.186;5.720;2023-04-26T04:32:20;99129.47;;;8.50;64.91
52975;BME280;38839;45.186;5.720;2023-04-26T04:34:48;99125.09;;;8.44;65.18
52975;BME280;38839;45.186;5.720;2023-04-26T04:37:15;99123.38;;;8.43;64.85
52975;BME280;38839;45.186;5.720;2023-04-26T04:39:41;99122.47;;;8.39;65.05
52975;BME280;38839;45.186;5.720;2023-04-26T04:42:06;99131.13;;;8.37;64.86
52975;BME280;38839;45.186;5.720;2023-04-26T04:44:32;99129.31;;;8.25;65.32
52975;BME280;38839;45.186;5.720;2023-04-26T04:46:57;99134.53;;;8.31;65.28
52975;BME280;38839;45.186;5.720;2023-04-26T04:49:23;99135.44;;;8.39;65.23
52975;BME280;38839;45.186;5.720;2023-04-26T04:51:49;99142.44;;;8.42;64.99
52975;BME280;38839;45.186;5.720;2023-04-26T04:54:16;99139.00;;;8.49;64.90
52975;BME280;38839;45.186;5.720;2023-04-26T04:56:43;99153.75;;;8.55;64.96
52975;BME280;38839;45.186;5.720;2023-04-26T04:59:08;99149.47;;;8.64;64.57
52975;BME280;38839;45.186;5.720;2023-04-26T05:01:34;99154.69;;;8.71;64.64
52975;BME280;38839;45.186;5.720;2023-04-26T05:04:03;99150.38;;;8.73;64.56
52975;BME280;38839;45.186;5.720;2023-04-26T05:06:29;99161.66;;;8.76;64.56
52975;BME280;38839;45.186;5.720;2023-04-26T05:08:57;99168.81;;;10.16;61.21
52975;BME280;38839;45.186;5.720;2023-04-26T05:11:23;99159.78;;;13.12;52.74
52975;BME280;38839;45.186;5.720;2023-04-26T05:13:49;99152.53;;;14.84;48.17
52975;BME280;38839;45.186;5.720;2023-04-26T05:16:15;99158.44;;;16.45;44.04
52975;BME280;38839;45.186;5.720;2023-04-26T05:18:40;99160.75;;;17.48;41.88
52975;BME280;38839;45.186;5.720;2023-04-26T05:21:06;99157.78;;;18.39;39.95
52975;BME280;38839;45.186;5.720;2023-04-26T05:23:34;99154.84;;;19.21;38.18
52975;BME280;38839;45.186;5.720;2023-04-26T05:26:02;99158.47;;;19.86;37.15
52975;BME280;38839;45.186;5.720;2023-04-26T05:28:28;99163.19;;;19.56;37.17
52975;BME280;38839;45.186;5.720;2023-04-26T05:30:54;99169.09;;;18.43;39.10
52975;BME280;38839;45.186;5.720;2023-04-26T05:33:20;99168.31;;;17.59;40.15
52975;BME280;38839;45.186;5.720;2023-04-26T05:35:46;99174.44;;;18.41;39.48
52975;BME280;38839;45.186;5.720;2023-04-26T05:38:11;99175.53;;;16.95;41.86
52975;BME280;38839;45.186;5.720;2023-04-26T05:40:36;99174.13;;;15.41;45.20
52975;BME280;38839;45.186;5.720;2023-04-26T05:43:02;99187.13;;;14.63;47.06
52975;BME280;38839;45.186;5.720;2023-04-26T05:45:27;99185.38;;;13.58;49.28
52975;BME280;38839;45.186;5.720;2023-04-26T05:47:53;99186.66;;;12.52;52.12
52975;BME280;38839;45.186;5.720;2023-04-26T05:50:18;99177.66;;;11.83;53.87
52975;BME280;38839;45.186;5.720;2023-04-26T05:52:44;99177.88;;;11.52;55.11
52975;BME280;38839;45.186;5.720;2023-04-26T05:55:09;99185.09;;;11.10;56.21
52975;BME280;38839;45.186;5.720;2023-04-26T05:57:34;99179.97;;;10.85;57.13
52975;BME280;38839;45.186;5.720;2023-04-26T06:00:00;99190.50;;;10.58;57.97
52975;BME280;38839;45.186;5.720;2023-04-26T06:02:25;99189.66;;;10.46;58.52
52975;BME280;38839;45.186;5.720;2023-04-26T06:04:51;99189.63;;;10.63;58.25
52975;BME280;38839;45.186;5.720;2023-04-26T06:07:17;99194.84;;;10.59;58.30
52975;BME280;38839;45.186;5.720;2023-04-26T06:09:42;99191.41;;;10.52;58.60
52975;BME280;38839;45.186;5.720;2023-04-26T06:12:08;99192.25;;;10.43;58.81
52975;BME280;38839;45.186;5.720;2023-04-26T06:14:33;99192.28;;;10.37;59.09
52975;BME280;38839;45.186;5.720;2023-04-26T06:16:58;99194.91;;;10.33;59.24
52975;BME280;38839;45.186;5.720;2023-04-26T06:19:24;99194.88;;;10.40;58.95
52975;BME280;38839;45.186;5.720;2023-04-26T06:21:49;99196.59;;;10.47;58.93
52975;BME280;38839;45.186;5.720;2023-04-26T06:24:16;99194.88;;;10.46;58.95
52975;BME280;38839;45.186;5.720;2023-04-26T06:26:41;99199.19;;;10.54;58.79
52975;BME280;38839;45.186;5.720;2023-04-26T06:29:07;99205.28;;;10.50;58.55
52975;BME280;38839;45.186;5.720;2023-04-26T06:31:32;99196.63;;;10.41;58.89
52975;BME280;38839;45.186;5.720;2023-04-26T06:33:57;99195.72;;;10.52;58.62
52975;BME280;38839;45.186;5.720;2023-04-26T06:36:23;99197.44;;;10.56;58.30
52975;BME280;38839;45.186;5.720;2023-04-26T06:38:48;99195.75;;;10.49;58.33
52975;BME280;38839;45.186;5.720;2023-04-26T06:41:14;99189.63;;;10.56;58.33
52975;BME280;38839;45.186;5.720;2023-04-26T06:43:39;99194.03;;;10.38;58.50
52975;BME280;38839;45.186;5.720;2023-04-26T06:46:05;99190.53;;;10.42;58.33
52975;BME280;38839;45.186;5.720;2023-04-26T06:48:30;99184.44;;;10.51;58.16
52975;BME280;38839;45.186;5.720;2023-04-26T06:50:56;99191.34;;;10.60;57.98
52975;BME280;38839;45.186;5.720;2023-04-26T06:53:21;99198.34;;;10.52;58.09
52975;BME280;38839;45.186;5.720;2023-04-26T06:55:47;99199.16;;;10.69;57.48
52975;BME280;38839;45.186;5.720;2023-04-26T06:58:12;99196.53;;;10.77;56.95
52975;BME280;38839;45.186;5.720;2023-04-26T07:00:37;99200.06;;;10.63;57.21
52975;BME280;38839;45.186;5.720;2023-04-26T07:03:03;99203.50;;;10.72;57.13
52975;BME280;38839;45.186;5.720;2023-04-26T07:05:28;99193.88;;;10.84;56.80
52975;BME280;38839;45.186;5.720;2023-04-26T07:07:54;99187.78;;;10.93;56.59
52975;BME280;38839;45.186;5.720;2023-04-26T07:10:19;99180.78;;;11.00;56.05
52975;BME280;38839;45.186;5.720;2023-04-26T07:12:45;99184.25;;;10.99;55.95
52975;BME280;38839;45.186;5.720;2023-04-26T07:15:11;99182.50;;;11.10;55.87
52975;BME280;38839;45.186;5.720;2023-04-26T07:17:36;99183.25;;;11.27;55.05
52975;BME280;38839;45.186;5.720;2023-04-26T07:20:01;99183.34;;;11.12;54.29
52975;BME280;38839;45.186;5.720;2023-04-26T07:22:28;99182.44;;;11.13;54.95
52975;BME280;38839;45.186;5.720;2023-04-26T07:24:53;99175.34;;;11.43;54.33
52975;BME280;38839;45.186;5.720;2023-04-26T07:27:18;99174.44;;;11.47;54.78
52975;BME280;38839;45.186;5.720;2023-04-26T07:29:44;99165.66;;;11.54;54.24
52975;BME280;38839;45.186;5.720;2023-04-26T07:32:09;99159.41;;;11.81;53.97
52975;BME280;38839;45.186;5.720;2023-04-26T07:34:35;99163.63;;;11.99;52.88
52975;BME280;38839;45.186;5.720;2023-04-26T07:37:01;99165.09;;;12.28;52.71
52975;BME280;38839;45.186;5.720;2023-04-26T07:39:26;99158.59;;;12.64;51.54
52975;BME280;38839;45.186;5.720;2023-04-26T07:41:51;99157.63;;;12.73;50.78
52975;BME280;38839;45.186;5.720;2023-04-26T07:44:17;99153.91;;;12.93;50.43
52975;BME280;38839;45.186;5.720;2023-04-26T07:46:42;99143.63;;;13.45;49.54
52975;BME280;38839;45.186;5.720;2023-04-26T07:49:08;99144.72;;;13.86;48.29
52975;BME280;38839;45.186;5.720;2023-04-26T07:51:34;99133.69;;;14.17;47.63
52975;BME280;38839;45.186;5.720;2023-04-26T07:54:00;99142.97;;;14.35;47.04
52975;BME280;38839;45.186;5.720;2023-04-26T07:56:26;99135.19;;;14.77;45.93
52975;BME280;38839;45.186;5.720;2023-04-26T07:58:51;99136.78;;;14.84;45.40
52975;BME280;38839;45.186;5.720;2023-04-26T08:01:17;99139.25;;;14.94;44.81
52975;BME280;38839;45.186;5.720;2023-04-26T08:03:42;99139.13;;;15.39;44.06
52975;BME280;38839;45.186;5.720;2023-04-26T08:06:08;99132.09;;;15.77;43.37
52975;BME280;38839;45.186;5.720;2023-04-26T08:08:34;99131.03;;;15.85;43.10
52975;BME280;38839;45.186;5.720;2023-04-26T08:11:06;99129.69;;;15.67;43.02
52975;BME280;38839;45.186;5.720;2023-04-26T08:13:32;99140.88;;;16.12;42.66
52975;BME280;38839;45.186;5.720;2023-04-26T08:15:57;99137.00;;;15.92;42.51
52975;BME280;38839;45.186;5.720;2023-04-26T08:18:23;99139.53;;;15.95;41.88
52975;BME280;38839;45.186;5.720;2023-04-26T08:20:48;99129.59;;;15.70;42.13
52975;BME280;38839;45.186;5.720;2023-04-26T08:23:14;99132.31;;;16.03;41.57
52975;BME280;38839;45.186;5.720;2023-04-26T08:25:39;99130.91;;;15.90;41.57
52975;BME280;38839;45.186;5.720;2023-04-26T08:28:04;99138.34;;;16.41;40.70
52975;BME280;38839;45.186;5.720;2023-04-26T08:30:32;99137.25;;;16.48;40.43
52975;BME280;38839;45.186;5.720;2023-04-26T08:32:57;99133.16;;;16.38;40.01
52975;BME280;38839;45.186;5.720;2023-04-26T08:35:23;99138.13;;;15.82;41.03
52975;BME280;38839;45.186;5.720;2023-04-26T08:37:48;99146.59;;;15.93;40.67
52975;BME280;38839;45.186;5.720;2023-04-26T08:40:18;99137.84;;;16.27;41.23
52975;BME280;38839;45.186;5.720;2023-04-26T08:42:47;99138.50;;;16.37;40.29
52975;BME280;38839;45.186;5.720;2023-04-26T08:45:14;99146.25;;;16.08;40.21
52975;BME280;38839;45.186;5.720;2023-04-26T08:47:48;99144.69;;;16.34;40.33
52975;BME280;38839;45.186;5.720;2023-04-26T08:50:17;99139.44;;;17.26;38.29
52975;BME280;38839;45.186;5.720;2023-04-26T08:52:43;99146.34;;;17.02;38.48
52975;BME280;38839;45.186;5.720;2023-04-26T08:55:10;99144.75;;;16.64;39.16
52975;BME280;38839;45.186;5.720;2023-04-26T08:57:37;99144.97;;;16.87;38.62
52975;BME280;38839;45.186;5.720;2023-04-26T09:00:05;99151.63;;;16.69;38.67
52975;BME280;38839;45.186;5.720;2023-04-26T09:02:36;99130.41;;;17.05;38.10
52975;BME280;38839;45.186;5.720;2023-04-26T09:05:05;99137.66;;;16.67;38.12
52975;BME280;38839;45.186;5.720;2023-04-26T09:07:34;99143.78;;;16.35;38.73
52975;BME280;38839;45.186;5.720;2023-04-26T09:10:03;99142.69;;;16.42;38.83
52975;BME280;38839;45.186;5.720;2023-04-26T09:12:31;99131.59;;;16.64;38.66
52975;BME280;38839;45.186;5.720;2023-04-26T09:14:57;99128.63;;;17.06;38.10
52975;BME280;38839;45.186;5.720;2023-04-26T09:19:56;99122.69;;;17.29;37.74
52975;BME280;38839;45.186;5.720;2023-04-26T09:22:35;99125.34;;;17.27;37.52
52975;BME280;38839;45.186;5.720;2023-04-26T09:25:02;99124.13;;;17.39;37.59
52975;BME280;38839;45.186;5.720;2023-04-26T09:27:32;99127.13;;;17.83;37.19
52975;BME280;38839;45.186;5.720;2023-04-26T09:32:24;99119.16;;;17.85;36.57
52975;BME280;38839;45.186;5.720;2023-04-26T09:34:50;99119.16;;;17.85;35.94
52975;BME280;38839;45.186;5.720;2023-04-26T09:37:16;99119.69;;;17.40;36.83
52975;BME280;38839;45.186;5.720;2023-04-26T09:39:41;99126.38;;;17.23;36.55
52975;BME280;38839;45.186;5.720;2023-04-26T09:42:10;99112.50;;;17.45;36.15
52975;BME280;38839;45.186;5.720;2023-04-26T09:44:36;99105.97;;;17.57;36.10
52975;BME280;38839;45.186;5.720;2023-04-26T09:47:07;99107.59;;;17.89;35.04
52975;BME280;38839;45.186;5.720;2023-04-26T09:49:45;99113.72;;;18.15;34.21
52975;BME280;38839;45.186;5.720;2023-04-26T09:52:13;99107.38;;;17.95;35.07
52975;BME280;38839;45.186;5.720;2023-04-26T09:54:50;99105.34;;;17.48;35.33
52975;BME280;38839;45.186;5.720;2023-04-26T09:57:16;99107.31;;;17.42;36.08
52975;BME280;38839;45.186;5.720;2023-04-26T10:04:47;99098.09;;;18.08;35.07
52975;BME280;38839;45.186;5.720;2023-04-26T10:07:13;99100.75;;;17.82;35.34
52975;BME280;38839;45.186;5.720;2023-04-26T10:09:42;99094.16;;;17.68;35.69
52975;BME280;38839;45.186;5.720;2023-04-26T10:12:09;99084.16;;;17.52;35.96
52975;BME280;38839;45.186;5.720;2023-04-26T10:14:38;99087.16;;;17.67;35.70
52975;BME280;38839;45.186;5.720;2023-04-26T10:17:04;99082.34;;;17.80;35.23
52975;BME280;38839;45.186;5.720;2023-04-26T10:19:34;99084.72;;;17.61;35.60
52975;BME280;38839;45.186;5.720;2023-04-26T10:22:06;99072.31;;;17.37;35.77
52975;BME280;38839;45.186;5.720;2023-04-26T10:24:33;99072.88;;;17.46;35.84
52975;BME280;38839;45.186;5.720;2023-04-26T10:26:59;99065.50;;;17.31;36.10
52975;BME280;38839;45.186;5.720;2023-04-26T10:32:18;99060.84;;;17.11;36.52
52975;BME280;38839;45.186;5.720;2023-04-26T10:34:44;99051.44;;;17.02;36.23
52975;BME280;38839;45.186;5.720;2023-04-26T10:37:29;99055.75;;;17.05;36.10
52975;BME280;38839;45.186;5.720;2023-04-26T10:40:24;99048.75;;;17.04;35.61
52975;BME280;38839;45.186;5.720;2023-04-26T10:45:43;99026.81;;;17.03;35.66
52975;BME280;38839;45.186;5.720;2023-04-26T10:59:11;99018.28;;;17.23;34.77
52975;BME280;38839;45.186;5.720;2023-04-26T11:01:38;99016.53;;;17.22;34.76
52975;BME280;38839;45.186;5.720;2023-04-26T11:04:08;99009.63;;;17.18;34.65
52975;BME280;38839;45.186;5.720;2023-04-26T11:06:50;99012.22;;;17.20;34.62
52975;BME280;38839;45.186;5.720;2023-04-26T11:09:37;99007.00;;;17.18;34.95
52975;BME280;38839;45.186;5.720;2023-04-26T11:12:06;98995.50;;;17.21;34.91
52975;BME280;38839;45.186;5.720;2023-04-26T11:14:35;98989.34;;;17.20;34.97
52975;BME280;38839;45.186;5.720;2023-04-26T11:17:10;98988.94;;;17.06;35.06
52975;BME280;38839;45.186;5.720;2023-04-26T11:19:36;98979.78;;;17.18;35.03
52975;BME280;38839;45.186;5.720;2023-04-26T11:22:02;98984.91;;;17.22;35.09
52975;BME280;38839;45.186;5.720;2023-04-26T11:24:30;98979.41;;;17.28;34.72
52975;BME280;38839;45.186;5.720;2023-04-26T11:26:57;98989.97;;;17.28;34.20
52975;BME280;38839;45.186;5.720;2023-04-26T11:29:23;98979.78;;;17.44;33.56
52975;BME280;38839;45.186;5.720;2023-04-26T11:31:54;98974.00;;;17.60;32.34
52975;BME280;38839;45.186;5.720;2023-04-26T11:34:21;98973.81;;;17.64;32.93
52975;BME280;38839;45.186;5.720;2023-04-26T11:36:47;98962.69;;;17.56;33.42
52975;BME280;38839;45.186;5.720;2023-04-26T11:39:13;98966.75;;;17.65;32.99
52975;BME280;38839;45.186;5.720;2023-04-26T11:41:38;98960.28;;;17.74;32.43
52975;BME280;38839;45.186;5.720;2023-04-26T11:44:04;98951.16;;;17.84;32.10
52975;BME280;38839;45.186;5.720;2023-04-26T11:46:29;98955.19;;;17.94;31.84
52975;BME280;38839;45.186;5.720;2023-04-26T11:48:55;98954.50;;;17.89;30.93
52975;BME280;38839;45.186;5.720;2023-04-26T11:51:21;98945.28;;;17.76;30.37
52975;BME280;38839;45.186;5.720;2023-04-26T11:53:49;98944.47;;;17.74;29.55
52975;BME280;38839;45.186;5.720;2023-04-26T11:56:16;98935.66;;;17.75;28.80
52975;BME280;38839;45.186;5.720;2023-04-26T11:58:44;98936.13;;;17.86;28.56
52975;BME280;38839;45.186;5.720;2023-04-26T12:01:09;98929.50;;;17.99;28.44
52975;BME280;38839;45.186;5.720;2023-04-26T12:03:35;98925.47;;;18.13;28.57
52975;BME280;38839;45.186;5.720;2023-04-26T12:06:02;98923.72;;;18.13;27.30
52975;BME280;38839;45.186;5.720;2023-04-26T12:08:28;98930.75;;;18.13;25.80
52975;BME280;38839;45.186;5.720;2023-04-26T12:11:01;98919.88;;;18.22;25.12
52975;BME280;38839;45.186;5.720;2023-04-26T12:13:28;98918.53;;;18.34;25.29
52975;BME280;38839;45.186;5.720;2023-04-26T12:15:56;98919.03;;;18.43;24.87
52975;BME280;38839;45.186;5.720;2023-04-26T12:18:21;98923.22;;;18.49;25.08
52975;BME280;38839;45.186;5.720;2023-04-26T12:20:56;98911.66;;;18.52;24.22
52975;BME280;38839;45.186;5.720;2023-04-26T12:23:23;98914.38;;;18.50;23.55
52975;BME280;38839;45.186;5.720;2023-04-26T12:25:55;98916.56;;;18.39;24.20
52975;BME280;38839;45.186;5.720;2023-04-26T12:28:22;98914.38;;;18.50;24.11
52975;BME280;38839;45.186;5.720;2023-04-26T12:30:48;98921.75;;;18.64;23.40
52975;BME280;38839;45.186;5.720;2023-04-26T12:33:14;98920.28;;;18.57;24.23
52975;BME280;38839;45.186;5.720;2023-04-26T12:35:40;98919.09;;;18.64;25.53
52975;BME280;38839;45.186;5.720;2023-04-26T12:38:06;98916.66;;;18.59;26.55
52975;BME280;38839;45.186;5.720;2023-04-26T12:40:31;98910.69;;;18.54;27.00
52975;BME280;38839;45.186;5.720;2023-04-26T12:42:57;98909.72;;;18.57;27.72
52975;BME280;38839;45.186;5.720;2023-04-26T12:45:23;98910.31;;;18.63;28.00
52975;BME280;38839;45.186;5.720;2023-04-26T12:47:49;98898.50;;;18.72;28.16
52975;BME280;38839;45.186;5.720;2023-04-26T12:50:16;98884.41;;;18.73;28.03
52975;BME280;38839;45.186;5.720;2023-04-26T12:52:43;98892.13;;;18.78;27.82
52975;BME280;38839;45.186;5.720;2023-04-26T12:55:13;98880.47;;;18.83;26.66
52975;BME280;38839;45.186;5.720;2023-04-26T12:57:40;98885.50;;;18.89;26.72
52975;BME280;38839;45.186;5.720;2023-04-26T13:00:08;98884.88;;;19.05;26.60
52975;BME280;38839;45.186;5.720;2023-04-26T13:02:34;98877.63;;;19.10;26.49
52975;BME280;38839;45.186;5.720;2023-04-26T13:05:02;98872.44;;;19.07;25.94
52975;BME280;38839;45.186;5.720;2023-04-26T13:07:32;98866.78;;;19.16;24.77
52975;BME280;38839;45.186;5.720;2023-04-26T13:09:58;98882.31;;;19.24;24.85
52975;BME280;38839;45.186;5.720;2023-04-26T13:12:24;98876.03;;;19.26;23.79
52975;BME280;38839;45.186;5.720;2023-04-26T13:14:50;98874.19;;;19.28;22.07
52975;BME280;38839;45.186;5.720;2023-04-26T13:17:15;98865.13;;;19.34;22.50
52975;BME280;38839;45.186;5.720;2023-04-26T13:19:41;98870.59;;;19.29;21.91
52975;BME280;38839;45.186;5.720;2023-04-26T13:22:06;98861.22;;;19.22;21.67
52975;BME280;38839;45.186;5.720;2023-04-26T13:24:33;98869.69;;;19.30;21.21
52975;BME280;38839;45.186;5.720;2023-04-26T13:26:59;98872.59;;;19.45;21.07